RKPC/CJU METAR and TAF weather

Enter ICAO airport designator
Station Type Date Time Source
RKPC METAR 2022/06/27 08:00 UTC NOAA

RKPC 270800Z 21018G33KT 180V250 9999 FEW025 BKN150 30/23 Q1008 WS R07 R25 NOSIG


Station Type Date Time Source
RKPC Decoded METAR 2022/06/27 08:00 UTC NOAA

Cheju International Airport, Korea, South (RKPC) 33-30N 126-30E 28M
Jun 27, 2022 - 04:00 AM EDT / 2022.06.27 0800 UTC
Wind: from the SSW (210 degrees) at 21 MPH (18 KT) gusting to 38 MPH (33 KT) (direction variable):0
Visibility: greater than 7 mile(s):0
Sky conditions: mostly cloudy
Temperature: 86 F (30 C)
Heat index: 93.4 F (34.1 C):1
Dew Point: 73 F (23 C)
Relative Humidity: 66%
Pressure (altimeter): 29.77 in. Hg (1008 hPa)
ob: RKPC 270800Z 21018G33KT 180V250 9999 FEW025 BKN150 30/23 Q1008 WS R07 R25 NOSIG
cycle: 8

Station Type Date Time Source
RKPC TAF 2022/06/27 06:06 UTC NOAA

TAF RKPC 270500Z 2706/2812 21020G35KT 9999 SCT030 BKN150 TN27/2720Z TX32/2805Z
BECMG 2709/2710 21015G25KT
BECMG 2723/2724 22020G35KT
BECMG 2810/2811 22015G25KT

Example: see airport list